sensor_id;sensor_type;location;lat;lon;timestamp;P1;durP1;ratioP1;P2;durP2;ratioP2
20906;SDS011;10613;50.966;5.814;2023-08-30T00:02:58;9.00;;;9.00;;
20906;SDS011;10613;50.966;5.814;2023-08-30T00:07:08;13.00;;;10.00;;
20906;SDS011;10613;50.966;5.814;2023-08-30T00:11:15;10.50;;;9.00;;
20906;SDS011;10613;50.966;5.814;2023-08-30T00:15:22;9.75;;;9.75;;
20906;SDS011;10613;50.966;5.814;2023-08-30T00:19:29;11.00;;;11.00;;
20906;SDS011;10613;50.966;5.814;2023-08-30T00:23:37;13.50;;;12.50;;
20906;SDS011;10613;50.966;5.814;2023-08-30T00:27:51;13.00;;;13.00;;
20906;SDS011;10613;50.966;5.814;2023-08-30T00:32:05;11.75;;;10.25;;
20906;SDS011;10613;50.966;5.814;2023-08-30T00:36:12;11.00;;;11.00;;
20906;SDS011;10613;50.966;5.814;2023-08-30T00:40:22;17.50;;;14.25;;
20906;SDS011;10613;50.966;5.814;2023-08-30T00:44:29;13.00;;;10.00;;
20906;SDS011;10613;50.966;5.814;2023-08-30T00:48:36;11.50;;;9.75;;
20906;SDS011;10613;50.966;5.814;2023-08-30T00:52:43;11.00;;;11.00;;
20906;SDS011;10613;50.966;5.814;2023-08-30T00:56:50;9.50;;;9.50;;
20906;SDS011;10613;50.966;5.814;2023-08-30T01:00:58;13.50;;;9.50;;
20906;SDS011;10613;50.966;5.814;2023-08-30T01:05:05;15.75;;;13.50;;
20906;SDS011;10613;50.966;5.814;2023-08-30T01:09:12;9.75;;;9.75;;
20906;SDS011;10613;50.966;5.814;2023-08-30T01:13:22;11.50;;;11.50;;
20906;SDS011;10613;50.966;5.814;2023-08-30T01:17:30;14.00;;;10.00;;
20906;SDS011;10613;50.966;5.814;2023-08-30T01:30:07;13.00;;;10.00;;
20906;SDS011;10613;50.966;5.814;2023-08-30T01:34:15;9.50;;;9.25;;
20906;SDS011;10613;50.966;5.814;2023-08-30T01:38:23;14.00;;;11.00;;
20906;SDS011;10613;50.966;5.814;2023-08-30T01:42:29;11.75;;;11.25;;
20906;SDS011;10613;50.966;5.814;2023-08-30T01:46:36;10.25;;;10.25;;
20906;SDS011;10613;50.966;5.814;2023-08-30T01:50:45;8.25;;;8.00;;
20906;SDS011;10613;50.966;5.814;2023-08-30T01:54:52;11.75;;;11.50;;
20906;SDS011;10613;50.966;5.814;2023-08-30T01:59:01;10.50;;;10.00;;
20906;SDS011;10613;50.966;5.814;2023-08-30T02:03:09;13.75;;;10.50;;
20906;SDS011;10613;50.966;5.814;2023-08-30T02:07:18;14.00;;;14.00;;
20906;SDS011;10613;50.966;5.814;2023-08-30T02:11:28;8.00;;;8.00;;
20906;SDS011;10613;50.966;5.814;2023-08-30T02:15:38;13.50;;;13.50;;
20906;SDS011;10613;50.966;5.814;2023-08-30T02:19:48;14.50;;;12.25;;
20906;SDS011;10613;50.966;5.814;2023-08-30T02:23:55;15.50;;;11.25;;
20906;SDS011;10613;50.966;5.814;2023-08-30T02:28:04;10.75;;;10.75;;
20906;SDS011;10613;50.966;5.814;2023-08-30T02:32:11;13.00;;;12.00;;
20906;SDS011;10613;50.966;5.814;2023-08-30T02:36:18;9.75;;;9.75;;
20906;SDS011;10613;50.966;5.814;2023-08-30T02:40:25;10.75;;;10.75;;
20906;SDS011;10613;50.966;5.814;2023-08-30T02:44:32;10.00;;;10.00;;
20906;SDS011;10613;50.966;5.814;2023-08-30T02:48:39;9.50;;;9.50;;
20906;SDS011;10613;50.966;5.814;2023-08-30T02:52:46;12.25;;;10.00;;
20906;SDS011;10613;50.966;5.814;2023-08-30T02:56:53;12.00;;;11.25;;
20906;SDS011;10613;50.966;5.814;2023-08-30T03:01:01;11.75;;;9.25;;
20906;SDS011;10613;50.966;5.814;2023-08-30T03:05:09;12.00;;;10.25;;
20906;SDS011;10613;50.966;5.814;2023-08-30T03:09:18;10.50;;;9.50;;
20906;SDS011;10613;50.966;5.814;2023-08-30T03:13:25;14.00;;;11.75;;
20906;SDS011;10613;50.966;5.814;2023-08-30T03:17:32;12.00;;;10.00;;
20906;SDS011;10613;50.966;5.814;2023-08-30T03:21:39;11.75;;;11.00;;
20906;SDS011;10613;50.966;5.814;2023-08-30T03:25:46;10.75;;;10.75;;
20906;SDS011;10613;50.966;5.814;2023-08-30T03:29:55;10.00;;;7.25;;
20906;SDS011;10613;50.966;5.814;2023-08-30T03:34:05;10.00;;;10.00;;
20906;SDS011;10613;50.966;5.814;2023-08-30T03:38:11;14.50;;;13.50;;
20906;SDS011;10613;50.966;5.814;2023-08-30T03:42:18;11.50;;;10.00;;
20906;SDS011;10613;50.966;5.814;2023-08-30T03:46:25;10.00;;;10.00;;
20906;SDS011;10613;50.966;5.814;2023-08-30T03:50:33;13.50;;;12.00;;
20906;SDS011;10613;50.966;5.814;2023-08-30T03:54:41;15.75;;;15.75;;
20906;SDS011;10613;50.966;5.814;2023-08-30T03:58:48;9.25;;;9.00;;
20906;SDS011;10613;50.966;5.814;2023-08-30T04:02:54;10.75;;;10.00;;
20906;SDS011;10613;50.966;5.814;2023-08-30T04:07:01;10.75;;;9.50;;
20906;SDS011;10613;50.966;5.814;2023-08-30T04:11:08;11.00;;;10.25;;
20906;SDS011;10613;50.966;5.814;2023-08-30T04:15:15;11.75;;;11.75;;
20906;SDS011;10613;50.966;5.814;2023-08-30T04:19:22;13.50;;;11.25;;
20906;SDS011;10613;50.966;5.814;2023-08-30T04:23:29;10.25;;;9.75;;
20906;SDS011;10613;50.966;5.814;2023-08-30T04:27:36;11.50;;;11.25;;
20906;SDS011;10613;50.966;5.814;2023-08-30T04:31:43;15.75;;;12.75;;
20906;SDS011;10613;50.966;5.814;2023-08-30T04:35:54;9.75;;;9.25;;
20906;SDS011;10613;50.966;5.814;2023-08-30T04:40:00;9.50;;;9.50;;
20906;SDS011;10613;50.966;5.814;2023-08-30T04:44:07;12.25;;;12.25;;
20906;SDS011;10613;50.966;5.814;2023-08-30T04:48:14;12.75;;;9.25;;
20906;SDS011;10613;50.966;5.814;2023-08-30T04:52:21;13.25;;;11.50;;
20906;SDS011;10613;50.966;5.814;2023-08-30T04:56:30;13.00;;;11.50;;
20906;SDS011;10613;50.966;5.814;2023-08-30T05:00:37;16.75;;;13.00;;
20906;SDS011;10613;50.966;5.814;2023-08-30T05:04:44;12.00;;;10.00;;
20906;SDS011;10613;50.966;5.814;2023-08-30T05:08:51;10.00;;;10.00;;
20906;SDS011;10613;50.966;5.814;2023-08-30T05:12:58;12.00;;;12.00;;
20906;SDS011;10613;50.966;5.814;2023-08-30T05:17:06;8.25;;;6.75;;
20906;SDS011;10613;50.966;5.814;2023-08-30T05:21:14;13.25;;;12.00;;
20906;SDS011;10613;50.966;5.814;2023-08-30T05:25:21;14.25;;;12.25;;
20906;SDS011;10613;50.966;5.814;2023-08-30T05:29:27;11.75;;;11.75;;
20906;SDS011;10613;50.966;5.814;2023-08-30T05:33:34;11.00;;;10.00;;
20906;SDS011;10613;50.966;5.814;2023-08-30T05:38:02;6.50;;;6.25;;
20906;SDS011;10613;50.966;5.814;2023-08-30T05:42:22;11.50;;;10.00;;
20906;SDS011;10613;50.966;5.814;2023-08-30T05:46:30;13.00;;;11.50;;
20906;SDS011;10613;50.966;5.814;2023-08-30T05:50:36;12.00;;;10.75;;
20906;SDS011;10613;50.966;5.814;2023-08-30T05:54:43;12.25;;;10.00;;
20906;SDS011;10613;50.966;5.814;2023-08-30T05:58:54;11.00;;;11.00;;
20906;SDS011;10613;50.966;5.814;2023-08-30T06:03:00;13.50;;;13.50;;
20906;SDS011;10613;50.966;5.814;2023-08-30T06:07:07;9.50;;;9.50;;
20906;SDS011;10613;50.966;5.814;2023-08-30T06:11:14;10.25;;;10.00;;
20906;SDS011;10613;50.966;5.814;2023-08-30T06:15:28;9.25;;;8.25;;
20906;SDS011;10613;50.966;5.814;2023-08-30T06:19:35;11.50;;;11.50;;
20906;SDS011;10613;50.966;5.814;2023-08-30T06:23:42;9.00;;;9.00;;
20906;SDS011;10613;50.966;5.814;2023-08-30T06:27:57;8.75;;;8.75;;
20906;SDS011;10613;50.966;5.814;2023-08-30T06:32:05;5.00;;;5.00;;
20906;SDS011;10613;50.966;5.814;2023-08-30T06:36:13;9.75;;;9.00;;
20906;SDS011;10613;50.966;5.814;2023-08-30T06:40:21;9.50;;;8.00;;
20906;SDS011;10613;50.966;5.814;2023-08-30T06:44:28;9.50;;;9.50;;
20906;SDS011;10613;50.966;5.814;2023-08-30T06:48:36;14.50;;;9.00;;
20906;SDS011;10613;50.966;5.814;2023-08-30T06:52:43;7.50;;;7.50;;
20906;SDS011;10613;50.966;5.814;2023-08-30T06:57:00;9.00;;;7.00;;
20906;SDS011;10613;50.966;5.814;2023-08-30T07:01:06;6.75;;;6.00;;
20906;SDS011;10613;50.966;5.814;2023-08-30T07:05:13;11.00;;;11.00;;
20906;SDS011;10613;50.966;5.814;2023-08-30T07:09:21;13.75;;;11.00;;
20906;SDS011;10613;50.966;5.814;2023-08-30T07:13:34;8.00;;;8.00;;
20906;SDS011;10613;50.966;5.814;2023-08-30T07:17:41;6.25;;;6.25;;
20906;SDS011;10613;50.966;5.814;2023-08-30T07:21:48;12.00;;;10.75;;
20906;SDS011;10613;50.966;5.814;2023-08-30T07:25:55;9.00;;;7.00;;
20906;SDS011;10613;50.966;5.814;2023-08-30T07:30:03;6.50;;;6.50;;
20906;SDS011;10613;50.966;5.814;2023-08-30T07:34:12;9.00;;;9.00;;
20906;SDS011;10613;50.966;5.814;2023-08-30T07:38:19;7.00;;;7.00;;
20906;SDS011;10613;50.966;5.814;2023-08-30T07:42:26;7.00;;;6.75;;
20906;SDS011;10613;50.966;5.814;2023-08-30T07:46:33;8.00;;;5.50;;
20906;SDS011;10613;50.966;5.814;2023-08-30T07:50:40;6.50;;;5.75;;
20906;SDS011;10613;50.966;5.814;2023-08-30T07:54:47;8.00;;;8.00;;
20906;SDS011;10613;50.966;5.814;2023-08-30T07:58:54;6.75;;;6.75;;
20906;SDS011;10613;50.966;5.814;2023-08-30T08:03:01;5.50;;;5.50;;
20906;SDS011;10613;50.966;5.814;2023-08-30T08:07:08;8.50;;;7.00;;
20906;SDS011;10613;50.966;5.814;2023-08-30T08:11:15;6.00;;;5.50;;
20906;SDS011;10613;50.966;5.814;2023-08-30T08:15:22;6.00;;;6.00;;
20906;SDS011;10613;50.966;5.814;2023-08-30T08:19:29;5.00;;;5.00;;
20906;SDS011;10613;50.966;5.814;2023-08-30T08:23:36;4.50;;;4.50;;
20906;SDS011;10613;50.966;5.814;2023-08-30T08:27:43;5.50;;;5.25;;
20906;SDS011;10613;50.966;5.814;2023-08-30T08:31:50;5.25;;;5.25;;
20906;SDS011;10613;50.966;5.814;2023-08-30T08:35:57;6.00;;;6.00;;
20906;SDS011;10613;50.966;5.814;2023-08-30T08:40:05;6.75;;;6.00;;
20906;SDS011;10613;50.966;5.814;2023-08-30T08:44:14;6.00;;;6.00;;
20906;SDS011;10613;50.966;5.814;2023-08-30T08:48:23;4.50;;;4.50;;
20906;SDS011;10613;50.966;5.814;2023-08-30T08:52:31;5.50;;;5.50;;
20906;SDS011;10613;50.966;5.814;2023-08-30T08:56:38;6.25;;;6.25;;
20906;SDS011;10613;50.966;5.814;2023-08-30T09:00:46;5.00;;;5.00;;
20906;SDS011;10613;50.966;5.814;2023-08-30T09:04:56;7.00;;;7.00;;
20906;SDS011;10613;50.966;5.814;2023-08-30T09:09:05;5.25;;;5.00;;
20906;SDS011;10613;50.966;5.814;2023-08-30T09:13:12;5.50;;;5.00;;
20906;SDS011;10613;50.966;5.814;2023-08-30T09:17:19;4.00;;;4.00;;
20906;SDS011;10613;50.966;5.814;2023-08-30T09:21:26;9.00;;;5.75;;
20906;SDS011;10613;50.966;5.814;2023-08-30T09:25:33;5.75;;;5.75;;
20906;SDS011;10613;50.966;5.814;2023-08-30T09:29:40;6.75;;;6.75;;
20906;SDS011;10613;50.966;5.814;2023-08-30T09:33:50;5.50;;;5.50;;
20906;SDS011;10613;50.966;5.814;2023-08-30T09:38:02;6.00;;;6.00;;
20906;SDS011;10613;50.966;5.814;2023-08-30T09:42:09;6.00;;;6.00;;
20906;SDS011;10613;50.966;5.814;2023-08-30T09:46:16;6.00;;;5.00;;
20906;SDS011;10613;50.966;5.814;2023-08-30T09:50:23;9.00;;;5.00;;
20906;SDS011;10613;50.966;5.814;2023-08-30T09:54:30;6.00;;;6.00;;
20906;SDS011;10613;50.966;5.814;2023-08-30T09:58:39;5.00;;;5.00;;
20906;SDS011;10613;50.966;5.814;2023-08-30T10:02:47;6.50;;;6.50;;
20906;SDS011;10613;50.966;5.814;2023-08-30T10:06:55;7.25;;;5.25;;
20906;SDS011;10613;50.966;5.814;2023-08-30T10:11:04;7.25;;;6.00;;
20906;SDS011;10613;50.966;5.814;2023-08-30T10:15:12;7.25;;;7.25;;
20906;SDS011;10613;50.966;5.814;2023-08-30T10:19:23;7.75;;;7.75;;
20906;SDS011;10613;50.966;5.814;2023-08-30T10:23:31;5.00;;;5.00;;
20906;SDS011;10613;50.966;5.814;2023-08-30T10:27:39;6.25;;;6.25;;
20906;SDS011;10613;50.966;5.814;2023-08-30T10:31:48;6.50;;;6.50;;
20906;SDS011;10613;50.966;5.814;2023-08-30T10:36:02;7.50;;;7.50;;
20906;SDS011;10613;50.966;5.814;2023-08-30T10:40:09;5.50;;;5.50;;
20906;SDS011;10613;50.966;5.814;2023-08-30T10:44:17;5.25;;;5.25;;
20906;SDS011;10613;50.966;5.814;2023-08-30T10:48:37;5.00;;;5.00;;
20906;SDS011;10613;50.966;5.814;2023-08-30T10:52:54;6.00;;;6.00;;
20906;SDS011;10613;50.966;5.814;2023-08-30T10:57:01;6.00;;;5.00;;
20906;SDS011;10613;50.966;5.814;2023-08-30T11:01:09;5.00;;;5.00;;
20906;SDS011;10613;50.966;5.814;2023-08-30T11:05:16;8.50;;;6.75;;
20906;SDS011;10613;50.966;5.814;2023-08-30T11:09:24;5.25;;;3.00;;
20906;SDS011;10613;50.966;5.814;2023-08-30T11:13:31;5.50;;;5.50;;
20906;SDS011;10613;50.966;5.814;2023-08-30T11:17:39;6.25;;;5.00;;
20906;SDS011;10613;50.966;5.814;2023-08-30T11:21:46;5.50;;;5.50;;
20906;SDS011;10613;50.966;5.814;2023-08-30T11:25:53;5.25;;;5.25;;
20906;SDS011;10613;50.966;5.814;2023-08-30T11:30:00;5.75;;;5.75;;
20906;SDS011;10613;50.966;5.814;2023-08-30T11:34:10;5.00;;;5.00;;
20906;SDS011;10613;50.966;5.814;2023-08-30T11:38:20;5.00;;;5.00;;
20906;SDS011;10613;50.966;5.814;2023-08-30T11:42:28;5.00;;;4.00;;
20906;SDS011;10613;50.966;5.814;2023-08-30T11:46:36;5.25;;;5.25;;
20906;SDS011;10613;50.966;5.814;2023-08-30T11:50:43;4.00;;;4.00;;
20906;SDS011;10613;50.966;5.814;2023-08-30T11:54:50;4.00;;;4.00;;
20906;SDS011;10613;50.966;5.814;2023-08-30T11:58:58;6.00;;;5.00;;
20906;SDS011;10613;50.966;5.814;2023-08-30T12:03:05;3.25;;;3.25;;
20906;SDS011;10613;50.966;5.814;2023-08-30T12:07:24;5.50;;;5.50;;
20906;SDS011;10613;50.966;5.814;2023-08-30T12:11:39;5.00;;;5.00;;
20906;SDS011;10613;50.966;5.814;2023-08-30T12:15:46;5.00;;;5.00;;
20906;SDS011;10613;50.966;5.814;2023-08-30T12:19:56;4.00;;;4.00;;
20906;SDS011;10613;50.966;5.814;2023-08-30T12:24:04;4.00;;;4.00;;
20906;SDS011;10613;50.966;5.814;2023-08-30T12:28:18;4.75;;;4.75;;
20906;SDS011;10613;50.966;5.814;2023-08-30T12:32:25;2.00;;;2.00;;
20906;SDS011;10613;50.966;5.814;2023-08-30T12:36:32;4.00;;;4.00;;
20906;SDS011;10613;50.966;5.814;2023-08-30T12:40:39;6.00;;;5.00;;
20906;SDS011;10613;50.966;5.814;2023-08-30T12:44:46;5.00;;;5.00;;
20906;SDS011;10613;50.966;5.814;2023-08-30T12:48:53;4.00;;;4.00;;
20906;SDS011;10613;50.966;5.814;2023-08-30T12:53:00;4.50;;;4.50;;
20906;SDS011;10613;50.966;5.814;2023-08-30T12:57:07;5.00;;;5.00;;
20906;SDS011;10613;50.966;5.814;2023-08-30T13:01:14;5.00;;;5.00;;
20906;SDS011;10613;50.966;5.814;2023-08-30T13:05:21;3.00;;;3.00;;
20906;SDS011;10613;50.966;5.814;2023-08-30T13:09:28;2.00;;;2.00;;
20906;SDS011;10613;50.966;5.814;2023-08-30T13:13:38;3.25;;;3.25;;
20906;SDS011;10613;50.966;5.814;2023-08-30T13:17:45;5.00;;;5.00;;
20906;SDS011;10613;50.966;5.814;2023-08-30T13:21:52;4.00;;;4.00;;
20906;SDS011;10613;50.966;5.814;2023-08-30T13:25:59;6.00;;;5.00;;
20906;SDS011;10613;50.966;5.814;2023-08-30T13:30:06;3.00;;;3.00;;
20906;SDS011;10613;50.966;5.814;2023-08-30T13:34:14;4.00;;;4.00;;
20906;SDS011;10613;50.966;5.814;2023-08-30T13:38:21;5.00;;;5.00;;
20906;SDS011;10613;50.966;5.814;2023-08-30T13:42:29;5.00;;;5.00;;
20906;SDS011;10613;50.966;5.814;2023-08-30T13:46:36;4.75;;;4.25;;
20906;SDS011;10613;50.966;5.814;2023-08-30T13:50:43;4.25;;;4.00;;
20906;SDS011;10613;50.966;5.814;2023-08-30T13:54:50;4.00;;;4.00;;
20906;SDS011;10613;50.966;5.814;2023-08-30T13:58:58;5.25;;;5.25;;
20906;SDS011;10613;50.966;5.814;2023-08-30T14:03:05;5.75;;;5.75;;
20906;SDS011;10613;50.966;5.814;2023-08-30T14:07:12;5.50;;;5.00;;
20906;SDS011;10613;50.966;5.814;2023-08-30T14:11:19;8.00;;;6.00;;
20906;SDS011;10613;50.966;5.814;2023-08-30T14:15:26;5.00;;;4.50;;
20906;SDS011;10613;50.966;5.814;2023-08-30T14:19:33;3.50;;;3.50;;
20906;SDS011;10613;50.966;5.814;2023-08-30T14:23:41;7.00;;;5.75;;
20906;SDS011;10613;50.966;5.814;2023-08-30T14:27:48;6.50;;;5.25;;
20906;SDS011;10613;50.966;5.814;2023-08-30T14:31:55;5.75;;;5.75;;
20906;SDS011;10613;50.966;5.814;2023-08-30T14:36:02;7.50;;;6.25;;
20906;SDS011;10613;50.966;5.814;2023-08-30T14:40:09;6.25;;;5.00;;
20906;SDS011;10613;50.966;5.814;2023-08-30T14:44:16;5.50;;;5.50;;
20906;SDS011;10613;50.966;5.814;2023-08-30T14:48:23;3.50;;;3.50;;
20906;SDS011;10613;50.966;5.814;2023-08-30T14:52:30;6.00;;;5.00;;
20906;SDS011;10613;50.966;5.814;2023-08-30T14:56:37;6.75;;;5.50;;
20906;SDS011;10613;50.966;5.814;2023-08-30T15:00:46;6.25;;;6.25;;
20906;SDS011;10613;50.966;5.814;2023-08-30T15:04:53;7.25;;;6.25;;
20906;SDS011;10613;50.966;5.814;2023-08-30T15:09:00;6.00;;;6.00;;
20906;SDS011;10613;50.966;5.814;2023-08-30T15:13:09;6.00;;;6.00;;
20906;SDS011;10613;50.966;5.814;2023-08-30T15:17:16;7.00;;;6.25;;
20906;SDS011;10613;50.966;5.814;2023-08-30T15:21:23;6.00;;;6.00;;
20906;SDS011;10613;50.966;5.814;2023-08-30T15:25:30;5.75;;;5.50;;
20906;SDS011;10613;50.966;5.814;2023-08-30T15:29:38;5.25;;;5.25;;
20906;SDS011;10613;50.966;5.814;2023-08-30T15:33:45;5.50;;;5.50;;
20906;SDS011;10613;50.966;5.814;2023-08-30T15:37:52;5.00;;;5.00;;
20906;SDS011;10613;50.966;5.814;2023-08-30T15:41:59;5.50;;;5.50;;
20906;SDS011;10613;50.966;5.814;2023-08-30T15:46:06;5.50;;;5.50;;
20906;SDS011;10613;50.966;5.814;2023-08-30T15:50:13;4.50;;;4.50;;
20906;SDS011;10613;50.966;5.814;2023-08-30T15:54:20;6.50;;;6.50;;
20906;SDS011;10613;50.966;5.814;2023-08-30T15:58:27;7.00;;;7.00;;
20906;SDS011;10613;50.966;5.814;2023-08-30T16:02:34;5.00;;;5.00;;
20906;SDS011;10613;50.966;5.814;2023-08-30T16:06:41;3.00;;;3.00;;
20906;SDS011;10613;50.966;5.814;2023-08-30T16:10:53;5.25;;;5.25;;
20906;SDS011;10613;50.966;5.814;2023-08-30T16:15:03;5.00;;;3.00;;
20906;SDS011;10613;50.966;5.814;2023-08-30T16:19:10;5.00;;;5.00;;
20906;SDS011;10613;50.966;5.814;2023-08-30T16:23:18;5.75;;;5.25;;
20906;SDS011;10613;50.966;5.814;2023-08-30T16:27:25;3.00;;;3.00;;
20906;SDS011;10613;50.966;5.814;2023-08-30T16:31:32;3.00;;;3.00;;
20906;SDS011;10613;50.966;5.814;2023-08-30T16:35:40;5.00;;;3.00;;
20906;SDS011;10613;50.966;5.814;2023-08-30T16:39:47;3.50;;;3.00;;
20906;SDS011;10613;50.966;5.814;2023-08-30T16:43:54;2.00;;;2.00;;
20906;SDS011;10613;50.966;5.814;2023-08-30T16:48:01;3.00;;;3.00;;
20906;SDS011;10613;50.966;5.814;2023-08-30T16:52:08;3.00;;;3.00;;
20906;SDS011;10613;50.966;5.814;2023-08-30T16:56:16;5.50;;;4.50;;
20906;SDS011;10613;50.966;5.814;2023-08-30T17:00:23;2.00;;;2.00;;
20906;SDS011;10613;50.966;5.814;2023-08-30T17:04:30;6.00;;;3.00;;
20906;SDS011;10613;50.966;5.814;2023-08-30T17:08:40;3.50;;;3.50;;
20906;SDS011;10613;50.966;5.814;2023-08-30T17:12:47;5.50;;;4.00;;
20906;SDS011;10613;50.966;5.814;2023-08-30T17:16:54;5.00;;;3.00;;
20906;SDS011;10613;50.966;5.814;2023-08-30T17:21:03;3.00;;;3.00;;
20906;SDS011;10613;50.966;5.814;2023-08-30T17:25:11;3.00;;;3.00;;
20906;SDS011;10613;50.966;5.814;2023-08-30T17:29:18;2.75;;;2.75;;
20906;SDS011;10613;50.966;5.814;2023-08-30T17:33:25;5.75;;;5.75;;
20906;SDS011;10613;50.966;5.814;2023-08-30T17:37:32;4.50;;;4.50;;
20906;SDS011;10613;50.966;5.814;2023-08-30T17:41:39;2.75;;;2.75;;
20906;SDS011;10613;50.966;5.814;2023-08-30T17:45:46;5.00;;;3.00;;
20906;SDS011;10613;50.966;5.814;2023-08-30T17:49:54;4.50;;;4.50;;
20906;SDS011;10613;50.966;5.814;2023-08-30T17:54:01;2.00;;;2.00;;
20906;SDS011;10613;50.966;5.814;2023-08-30T17:58:08;3.00;;;2.75;;
20906;SDS011;10613;50.966;5.814;2023-08-30T18:02:15;3.00;;;2.75;;
20906;SDS011;10613;50.966;5.814;2023-08-30T18:06:22;2.00;;;2.00;;
20906;SDS011;10613;50.966;5.814;2023-08-30T18:10:29;2.25;;;2.25;;
20906;SDS011;10613;50.966;5.814;2023-08-30T18:14:43;2.25;;;2.25;;
20906;SDS011;10613;50.966;5.814;2023-08-30T18:18:53;3.00;;;3.00;;
20906;SDS011;10613;50.966;5.814;2023-08-30T18:23:00;3.00;;;3.00;;
20906;SDS011;10613;50.966;5.814;2023-08-30T18:27:14;2.00;;;2.00;;
20906;SDS011;10613;50.966;5.814;2023-08-30T18:31:35;2.75;;;2.75;;
20906;SDS011;10613;50.966;5.814;2023-08-30T18:35:42;3.00;;;3.00;;
20906;SDS011;10613;50.966;5.814;2023-08-30T18:39:56;2.00;;;2.00;;
20906;SDS011;10613;50.966;5.814;2023-08-30T18:44:03;2.25;;;2.25;;
20906;SDS011;10613;50.966;5.814;2023-08-30T18:48:10;4.00;;;4.00;;
20906;SDS011;10613;50.966;5.814;2023-08-30T18:52:17;2.00;;;2.00;;
20906;SDS011;10613;50.966;5.814;2023-08-30T18:56:24;3.00;;;3.00;;
20906;SDS011;10613;50.966;5.814;2023-08-30T19:00:31;2.00;;;2.00;;
20906;SDS011;10613;50.966;5.814;2023-08-30T19:04:38;3.00;;;3.00;;
20906;SDS011;10613;50.966;5.814;2023-08-30T19:08:45;5.00;;;5.00;;
20906;SDS011;10613;50.966;5.814;2023-08-30T19:12:52;4.00;;;4.00;;
20906;SDS011;10613;50.966;5.814;2023-08-30T19:16:59;3.25;;;2.00;;
20906;SDS011;10613;50.966;5.814;2023-08-30T19:21:06;4.00;;;3.75;;
20906;SDS011;10613;50.966;5.814;2023-08-30T19:25:14;4.00;;;4.00;;
20906;SDS011;10613;50.966;5.814;2023-08-30T19:29:22;2.00;;;2.00;;
20906;SDS011;10613;50.966;5.814;2023-08-30T19:33:29;4.50;;;4.50;;
20906;SDS011;10613;50.966;5.814;2023-08-30T19:37:36;3.50;;;2.00;;
20906;SDS011;10613;50.966;5.814;2023-08-30T19:41:43;3.50;;;3.50;;
20906;SDS011;10613;50.966;5.814;2023-08-30T19:46:00;3.50;;;3.50;;
20906;SDS011;10613;50.966;5.814;2023-08-30T19:50:07;4.50;;;4.00;;
20906;SDS011;10613;50.966;5.814;2023-08-30T19:54:14;2.00;;;2.00;;
20906;SDS011;10613;50.966;5.814;2023-08-30T19:58:21;5.00;;;5.00;;
20906;SDS011;10613;50.966;5.814;2023-08-30T20:02:28;4.75;;;4.75;;
20906;SDS011;10613;50.966;5.814;2023-08-30T20:06:35;5.00;;;5.00;;
20906;SDS011;10613;50.966;5.814;2023-08-30T20:10:42;2.50;;;2.50;;
20906;SDS011;10613;50.966;5.814;2023-08-30T20:14:49;4.00;;;4.00;;
20906;SDS011;10613;50.966;5.814;2023-08-30T20:18:56;4.00;;;4.00;;
20906;SDS011;10613;50.966;5.814;2023-08-30T20:23:04;4.25;;;3.75;;
20906;SDS011;10613;50.966;5.814;2023-08-30T20:27:10;4.00;;;4.00;;
20906;SDS011;10613;50.966;5.814;2023-08-30T20:31:17;4.00;;;4.00;;
20906;SDS011;10613;50.966;5.814;2023-08-30T20:35:27;4.25;;;4.00;;
20906;SDS011;10613;50.966;5.814;2023-08-30T20:39:34;4.00;;;4.00;;
20906;SDS011;10613;50.966;5.814;2023-08-30T20:43:41;5.00;;;5.00;;
20906;SDS011;10613;50.966;5.814;2023-08-30T20:47:48;5.25;;;5.25;;
20906;SDS011;10613;50.966;5.814;2023-08-30T20:51:55;4.25;;;4.00;;
20906;SDS011;10613;50.966;5.814;2023-08-30T20:56:03;5.00;;;5.00;;
20906;SDS011;10613;50.966;5.814;2023-08-30T21:00:09;5.25;;;4.25;;
20906;SDS011;10613;50.966;5.814;2023-08-30T21:04:16;2.75;;;2.75;;
20906;SDS011;10613;50.966;5.814;2023-08-30T21:08:23;3.50;;;3.50;;
20906;SDS011;10613;50.966;5.814;2023-08-30T21:12:30;5.00;;;5.00;;
20906;SDS011;10613;50.966;5.814;2023-08-30T21:16:37;3.00;;;3.00;;
20906;SDS011;10613;50.966;5.814;2023-08-30T21:20:46;2.00;;;2.00;;
20906;SDS011;10613;50.966;5.814;2023-08-30T21:24:53;4.00;;;4.00;;
20906;SDS011;10613;50.966;5.814;2023-08-30T21:29:01;4.25;;;4.25;;
20906;SDS011;10613;50.966;5.814;2023-08-30T21:33:09;9.75;;;6.00;;
20906;SDS011;10613;50.966;5.814;2023-08-30T21:37:16;5.75;;;4.00;;
20906;SDS011;10613;50.966;5.814;2023-08-30T21:41:23;4.25;;;4.25;;
20906;SDS011;10613;50.966;5.814;2023-08-30T21:45:30;2.00;;;2.00;;
20906;SDS011;10613;50.966;5.814;2023-08-30T21:49:37;6.00;;;4.00;;
20906;SDS011;10613;50.966;5.814;2023-08-30T21:53:44;4.00;;;4.00;;
20906;SDS011;10613;50.966;5.814;2023-08-30T21:57:51;5.00;;;5.00;;
20906;SDS011;10613;50.966;5.814;2023-08-30T22:01:58;4.50;;;4.50;;
20906;SDS011;10613;50.966;5.814;2023-08-30T22:06:05;4.00;;;4.00;;
20906;SDS011;10613;50.966;5.814;2023-08-30T22:10:13;4.25;;;4.25;;
20906;SDS011;10613;50.966;5.814;2023-08-30T22:14:19;5.75;;;4.50;;
20906;SDS011;10613;50.966;5.814;2023-08-30T22:18:26;5.00;;;5.00;;
20906;SDS011;10613;50.966;5.814;2023-08-30T22:22:34;6.00;;;5.25;;
20906;SDS011;10613;50.966;5.814;2023-08-30T22:26:41;9.25;;;9.25;;
20906;SDS011;10613;50.966;5.814;2023-08-30T22:30:49;6.25;;;4.25;;
20906;SDS011;10613;50.966;5.814;2023-08-30T22:34:57;5.50;;;5.00;;
20906;SDS011;10613;50.966;5.814;2023-08-30T22:39:06;5.50;;;5.50;;
20906;SDS011;10613;50.966;5.814;2023-08-30T22:43:13;6.00;;;6.00;;
20906;SDS011;10613;50.966;5.814;2023-08-30T22:47:21;7.50;;;7.50;;
20906;SDS011;10613;50.966;5.814;2023-08-30T22:51:27;4.00;;;4.00;;
20906;SDS011;10613;50.966;5.814;2023-08-30T22:55:36;4.00;;;4.00;;
20906;SDS011;10613;50.966;5.814;2023-08-30T22:59:42;4.00;;;4.00;;
20906;SDS011;10613;50.966;5.814;2023-08-30T23:03:49;4.75;;;4.75;;
20906;SDS011;10613;50.966;5.814;2023-08-30T23:07:56;5.75;;;5.25;;
20906;SDS011;10613;50.966;5.814;2023-08-30T23:12:05;4.00;;;4.00;;
20906;SDS011;10613;50.966;5.814;2023-08-30T23:16:11;3.50;;;3.50;;
20906;SDS011;10613;50.966;5.814;2023-08-30T23:20:19;4.50;;;4.50;;
20906;SDS011;10613;50.966;5.814;2023-08-30T23:24:26;5.25;;;5.25;;
20906;SDS011;10613;50.966;5.814;2023-08-30T23:28:34;5.00;;;5.00;;
20906;SDS011;10613;50.966;5.814;2023-08-30T23:32:40;5.00;;;4.00;;
20906;SDS011;10613;50.966;5.814;2023-08-30T23:36:47;3.00;;;3.00;;
20906;SDS011;10613;50.966;5.814;2023-08-30T23:40:55;4.00;;;4.00;;
20906;SDS011;10613;50.966;5.814;2023-08-30T23:45:02;2.50;;;2.00;;
20906;SDS011;10613;50.966;5.814;2023-08-30T23:49:09;4.00;;;3.50;;
20906;SDS011;10613;50.966;5.814;2023-08-30T23:53:16;4.00;;;4.00;;
20906;SDS011;10613;50.966;5.814;2023-08-30T23:57:22;4.75;;;4.75;;
